createdAt,value
2019-03-19T00:04:47.684Z,71.29
2019-03-19T00:09:51.913Z,70.83
2019-03-19T00:14:56.146Z,71.31
2019-03-19T00:20:00.410Z,71.59
2019-03-19T00:25:04.914Z,71.49
2019-03-19T00:30:09.959Z,71.20
2019-03-19T00:35:14.222Z,71.33
2019-03-19T00:40:18.472Z,71.40
2019-03-19T00:45:22.744Z,70.70
2019-03-19T00:50:26.979Z,71.01
2019-03-19T00:55:40.314Z,71.11
2019-03-19T01:00:37.210Z,71.61
2019-03-19T01:05:41.443Z,71.22
2019-03-19T01:10:45.669Z,71.53
2019-03-19T01:15:49.946Z,71.66
2019-03-19T01:20:54.364Z,71.90
2019-03-19T01:25:58.801Z,72.23
2019-03-19T01:31:03.241Z,72.30
2019-03-19T01:36:07.478Z,72.00
2019-03-19T01:41:11.724Z,72.07
2019-03-19T01:46:15.951Z,71.80
2019-03-19T01:51:20.201Z,71.26
2019-03-19T01:56:24.448Z,71.10
2019-03-19T02:01:28.683Z,70.98
2019-03-19T02:06:32.914Z,70.71
2019-03-19T02:11:38.384Z,70.49
2019-03-19T02:16:42.880Z,70.78
2019-03-19T02:21:47.133Z,70.71
2019-03-19T02:26:51.359Z,70.49
2019-03-19T02:31:55.630Z,70.68
2019-03-19T02:36:59.874Z,70.99
2019-03-19T02:42:04.108Z,71.21
2019-03-19T02:47:08.357Z,71.93
2019-03-19T02:52:12.591Z,72.53
2019-03-19T02:57:16.838Z,73.13
2019-03-19T03:02:21.067Z,73.17
2019-03-19T03:07:25.305Z,73.71
2019-03-19T03:12:29.536Z,73.65
2019-03-19T03:17:33.793Z,73.52
2019-03-19T03:22:38.084Z,73.95
2019-03-19T03:27:42.410Z,74.13
2019-03-19T03:32:46.666Z,74.55
2019-03-19T03:37:50.877Z,74.75
2019-03-19T03:42:55.112Z,74.85
2019-03-19T03:47:59.335Z,74.69
2019-03-19T03:53:03.587Z,74.51
2019-03-19T03:58:07.803Z,74.59
2019-03-19T04:03:12.037Z,74.73
2019-03-19T04:08:16.266Z,74.26
2019-03-19T04:13:20.495Z,74.18
2019-03-19T04:18:24.891Z,73.98
2019-03-19T04:23:29.228Z,73.85
2019-03-19T04:28:33.473Z,73.54
2019-03-19T04:33:37.853Z,73.39
2019-03-19T04:38:42.085Z,73.85
2019-03-19T04:43:46.315Z,73.64
2019-03-19T04:48:50.659Z,73.53
2019-03-19T04:53:54.878Z,73.32
2019-03-19T04:58:59.103Z,73.56
2019-03-19T05:04:03.337Z,73.49
2019-03-19T05:09:08.626Z,72.78
2019-03-19T05:14:12.850Z,72.93
2019-03-19T05:19:17.090Z,72.87
2019-03-19T05:24:21.323Z,73.16
2019-03-19T05:29:25.562Z,73.55
2019-03-19T05:34:29.995Z,73.14
2019-03-19T05:39:34.268Z,73.07
2019-03-19T05:44:38.534Z,72.93
2019-03-19T05:49:42.797Z,72.83
2019-03-19T05:54:47.526Z,72.78
2019-03-19T05:59:51.815Z,72.52
2019-03-19T06:04:56.047Z,72.43
2019-03-19T06:10:00.344Z,72.43
2019-03-19T06:15:05.270Z,72.25
2019-03-19T06:20:10.725Z,71.99
2019-03-19T06:25:14.950Z,71.76
2019-03-19T06:30:19.315Z,71.85
2019-03-19T06:35:23.559Z,71.23
2019-03-19T06:40:27.794Z,71.06
2019-03-19T06:45:32.029Z,70.46
2019-03-19T06:50:44.667Z,69.59
2019-03-19T06:55:42.204Z,68.90
2019-03-19T07:00:46.440Z,69.54
2019-03-19T07:05:50.691Z,70.19
2019-03-19T07:10:54.982Z,70.24
2019-03-19T07:15:59.186Z,69.91
2019-03-19T07:21:03.420Z,69.07
2019-03-19T07:26:07.692Z,68.84
2019-03-19T07:31:12.074Z,69.08
2019-03-19T07:36:16.326Z,67.82
2019-03-19T07:41:20.553Z,66.41
2019-03-19T07:46:24.840Z,65.55
2019-03-19T07:51:29.088Z,65.59
2019-03-19T07:56:33.314Z,64.49
2019-03-19T08:01:37.534Z,64.29
2019-03-19T08:06:41.770Z,63.31
2019-03-19T08:11:46.010Z,63.29
2019-03-19T08:16:50.225Z,62.12
2019-03-19T08:21:54.460Z,63.14
2019-03-19T08:26:58.688Z,62.83
2019-03-19T08:32:02.913Z,62.61
2019-03-19T08:37:07.176Z,61.38
2019-03-19T08:42:11.398Z,61.53
2019-03-19T08:47:25.324Z,60.86
2019-03-19T08:52:29.573Z,61.64
2019-03-19T08:57:33.807Z,59.54
2019-03-19T09:02:38.171Z,59.96
2019-03-19T09:07:42.408Z,59.08
2019-03-19T09:12:48.472Z,58.84
2019-03-19T09:17:52.627Z,58.63
2019-03-19T09:22:56.874Z,57.54
2019-03-19T09:28:01.085Z,55.51
2019-03-19T09:33:05.534Z,56.35
2019-03-19T09:38:09.821Z,55.92
2019-03-19T09:43:14.053Z,55.22
2019-03-19T09:48:18.291Z,55.33
2019-03-19T09:53:22.512Z,54.16
2019-03-19T09:58:26.748Z,53.34
2019-03-19T10:03:30.994Z,53.17
2019-03-19T10:08:35.216Z,51.89
2019-03-19T10:13:39.463Z,50.58
2019-03-19T10:18:43.745Z,49.98
2019-03-19T10:23:47.968Z,49.47
2019-03-19T10:28:52.204Z,50.33
2019-03-19T10:33:56.439Z,50.44
2019-03-19T10:39:00.687Z,47.12
2019-03-19T10:44:05.266Z,45.35
2019-03-19T10:49:09.526Z,45.29
2019-03-19T10:54:13.771Z,44.69
2019-03-19T10:59:18.146Z,45.06
2019-03-19T11:04:23.198Z,44.30
2019-03-19T11:09:27.382Z,45.98
2019-03-19T11:14:31.791Z,43.39
2019-03-19T11:19:36.135Z,40.53
2019-03-19T11:24:40.456Z,43.05
2019-03-19T11:29:44.811Z,43.68
2019-03-19T11:34:49.053Z,40.22
2019-03-19T11:39:53.392Z,38.13
2019-03-19T11:44:57.728Z,39.29
2019-03-19T11:50:02.073Z,39.72
2019-03-19T11:55:07.711Z,41.46
2019-03-19T12:00:19.450Z,44.66
2019-03-19T12:05:23.677Z,44.63
2019-03-19T12:10:28.015Z,40.09
2019-03-19T12:15:32.321Z,38.12
2019-03-19T12:20:36.553Z,36.84
2019-03-19T12:25:40.904Z,36.49
2019-03-19T12:30:45.128Z,36.98
2019-03-19T12:35:49.376Z,37.14
2019-03-19T12:40:53.598Z,38.93
2019-03-19T12:45:57.840Z,39.04
2019-03-19T12:51:02.167Z,40.12
2019-03-19T12:56:06.410Z,41.05
2019-03-19T13:01:10.723Z,40.30
2019-03-19T13:06:15.159Z,38.75
2019-03-19T13:11:19.409Z,40.45
2019-03-19T13:16:23.648Z,40.28
2019-03-19T13:21:28.055Z,40.05
2019-03-19T13:26:32.308Z,39.33
2019-03-19T13:31:36.574Z,36.14
2019-03-19T13:36:40.768Z,33.98
2019-03-19T13:41:45.036Z,32.84
2019-03-19T13:46:49.270Z,32.29
2019-03-19T13:51:53.506Z,36.69
2019-03-19T13:56:57.735Z,38.82
2019-03-19T14:02:01.969Z,39.43
2019-03-19T14:07:06.309Z,39.97
2019-03-19T14:12:10.601Z,40.38
2019-03-19T14:17:14.842Z,40.19
2019-03-19T14:22:19.080Z,36.96
2019-03-19T14:27:23.311Z,37.32
2019-03-19T14:32:28.539Z,39.22
2019-03-19T14:37:32.773Z,39.96
2019-03-19T14:42:36.993Z,42.65
2019-03-19T14:47:41.332Z,42.37
2019-03-19T14:52:45.598Z,43.37
2019-03-19T14:57:51.057Z,43.21
2019-03-19T15:02:55.461Z,41.47
2019-03-19T15:07:59.657Z,41.39
2019-03-19T15:13:03.908Z,41.51
2019-03-19T15:18:08.150Z,41.62
2019-03-19T15:23:12.383Z,42.23
2019-03-19T15:28:16.615Z,42.56
2019-03-19T15:33:20.977Z,43.03
2019-03-19T15:38:25.216Z,43.09
2019-03-19T15:43:29.450Z,43.01
2019-03-19T15:48:33.694Z,43.08
2019-03-19T15:53:37.939Z,43.59
2019-03-19T15:58:42.169Z,43.20
2019-03-19T16:03:46.391Z,43.32
2019-03-19T16:08:50.636Z,44.41
2019-03-19T16:13:54.877Z,44.69
2019-03-19T16:18:59.110Z,44.61
2019-03-19T16:24:03.342Z,45.37
2019-03-19T16:29:07.574Z,46.23
2019-03-19T16:34:11.815Z,46.43
2019-03-19T16:39:16.061Z,47.05
2019-03-19T16:44:20.293Z,47.75
2019-03-19T16:49:24.528Z,47.55
2019-03-19T16:54:28.755Z,47.22
2019-03-19T16:59:33.004Z,48.21
2019-03-19T17:04:37.258Z,49.16
2019-03-19T17:09:41.493Z,49.96
2019-03-19T17:14:45.734Z,50.35
2019-03-19T17:19:49.986Z,50.88
2019-03-19T17:24:54.216Z,51.11
2019-03-19T17:29:58.688Z,51.24
2019-03-19T17:35:02.989Z,51.88
2019-03-19T17:40:08.144Z,52.12
2019-03-19T17:45:12.770Z,52.27
2019-03-19T17:50:18.597Z,52.57
2019-03-19T17:55:22.993Z,52.91
2019-03-19T18:00:28.689Z,52.95
2019-03-19T18:05:32.983Z,53.26
2019-03-19T18:10:37.245Z,53.63
2019-03-19T18:15:41.458Z,53.75
2019-03-19T18:20:45.794Z,53.72
2019-03-19T18:25:50.368Z,53.96
2019-03-19T18:30:54.612Z,54.41
2019-03-19T18:35:58.875Z,55.03
2019-03-19T18:41:03.220Z,55.14
2019-03-19T18:46:07.467Z,55.24
2019-03-19T18:51:11.749Z,55.34
2019-03-19T18:56:15.989Z,55.27
2019-03-19T19:01:20.241Z,55.60
2019-03-19T19:06:24.479Z,55.64
2019-03-19T19:11:28.724Z,55.79
2019-03-19T19:16:33.288Z,55.78
2019-03-19T19:21:37.593Z,56.50
2019-03-19T19:26:41.896Z,56.30
2019-03-19T19:31:46.331Z,56.36
2019-03-19T19:36:51.140Z,56.46
2019-03-19T19:41:55.559Z,56.66
2019-03-19T19:47:00.007Z,56.98
2019-03-19T19:52:04.518Z,56.97
2019-03-19T19:57:08.858Z,57.19
2019-03-19T20:02:13.116Z,57.22
2019-03-19T20:07:17.383Z,57.34
2019-03-19T20:12:25.248Z,57.46
2019-03-19T20:17:29.777Z,57.56
2019-03-19T20:22:34.695Z,57.27
2019-03-19T20:27:39.113Z,57.90
2019-03-19T20:32:43.568Z,58.42
2019-03-19T20:37:47.963Z,58.30
2019-03-19T20:42:52.250Z,58.51
2019-03-19T20:47:56.504Z,58.37
2019-03-19T20:53:00.878Z,58.28
2019-03-19T20:58:05.369Z,58.07
2019-03-19T21:03:09.600Z,58.78
2019-03-19T21:08:13.849Z,58.68
2019-03-19T21:13:18.087Z,59.11
2019-03-19T21:18:22.335Z,58.82
2019-03-19T21:23:26.589Z,58.91
2019-03-19T21:28:30.837Z,58.98
2019-03-19T21:33:35.070Z,58.96
2019-03-19T21:38:39.450Z,59.32
2019-03-19T21:43:43.498Z,59.70
2019-03-19T21:48:47.734Z,59.57
2019-03-19T21:53:52.166Z,59.60
2019-03-19T21:58:56.439Z,60.28
2019-03-19T22:04:03.329Z,60.23
2019-03-19T22:09:07.861Z,60.58
2019-03-19T22:14:12.085Z,61.17
2019-03-19T22:19:16.319Z,60.79
2019-03-19T22:24:20.561Z,60.86
2019-03-19T22:29:24.788Z,60.80
2019-03-19T22:34:29.044Z,60.66
2019-03-19T22:39:33.318Z,61.28
2019-03-19T22:44:37.562Z,61.11
2019-03-19T22:49:41.794Z,61.14
2019-03-19T22:54:46.243Z,61.08
2019-03-19T22:59:50.482Z,61.91
2019-03-19T23:04:54.707Z,61.36
2019-03-19T23:09:58.935Z,61.32
2019-03-19T23:15:03.228Z,61.77
2019-03-19T23:20:07.908Z,62.14
2019-03-19T23:25:12.292Z,61.91
2019-03-19T23:30:16.561Z,61.89
2019-03-19T23:35:20.799Z,61.70
2019-03-19T23:40:25.069Z,62.01
2019-03-19T23:45:29.295Z,62.34
2019-03-19T23:50:33.564Z,62.05
2019-03-19T23:55:37.841Z,62.13
